• Join FlightAware (Why Join?)
  • Login
  • US Flag 
03:13PM EDT


 

Airport Tracker/Info


-or-


 

Live Flight TrackerFlight Track Log ✈ CJT574 ✈ 27-Jun-2013 ✈ CYWG - CYHM

Flight Track Log - Related Links

Times and Time Zones

All times are in EDT time to prevent confusion due to time zone crossing. See the CJT574 flight status page for this flight to view local times or setup timezone preferences in your user account.

Time Position Orientation Groundspeed Altitude Reporting Facility
EDT Latitude Longitude Course Direction KTS MPH feet Rate Location/Type
02:04AM 49.9833 -97.2000 23° Northeast 180 207 4,100  Level Winnipeg Center
02:05AM 50.0167 -97.1500 44° Northeast 230 265 5,200 1,620 Climbing Winnipeg Center
02:06AM 49.9500 -97.0667 141° Southeast 280 322 7,400 2,340 Climbing Winnipeg Center
02:07AM 49.8833 -97.0167 154° Southeast 300 345 9,900 1,800 Climbing Winnipeg Center
02:08AM 49.8167 -96.9333 141° Southeast 370 426 11,100 1,620 Climbing Winnipeg Center
02:09AM 49.7221 -96.1818 105° East  Level FlightAware Approximate
02:09AM 49.7667 -96.7833 117° Southeast 370 426 13,200  Level Winnipeg Center
02:10AM 49.7167 -96.6333 117° Southeast 410 472 15,100 1,800 Climbing Winnipeg Center
02:11AM 49.6667 -96.4500 113° Southeast 430 495 16,900 2,100 Climbing Winnipeg Center
02:12AM 49.6333 -96.3000 109° East 440 506 19,400 2,100 Climbing Winnipeg Center
02:13AM 49.5667 -96.1167 119° Southeast 450 518 21,200 1,620 Climbing Winnipeg Center
02:14AM 49.5167 -95.9333 113° Southeast 450 518 22,700 1,560 Climbing Winnipeg Center
02:15AM 49.4667 -95.7333 111° Southeast 470 541 24,400 1,620 Climbing Winnipeg Center
02:16AM 49.4167 -95.5500 113° Southeast 470 541 26,000 1,380 Climbing Winnipeg Center
02:17AM 49.3500 -95.3500 117° Southeast 490 564 27,200 1,020 Climbing Winnipeg Center
02:18AM 49.3000 -95.1667 113° Southeast 500 575 28,100 900 Climbing Winnipeg Center
02:19AM 49.2500 -94.9667 111° Southeast 510 587 29,100 900 Climbing Winnipeg Center
02:20AM 49.1667 -94.7667 122° Southeast 530 610 30,000 900 Climbing Winnipeg Center
02:21AM 49.1167 -94.5667 111° Southeast 530 610 31,000 1,200 Climbing Winnipeg Center
02:22AM 49.0500 -94.3667 117° Southeast 530 610 32,400 1,200 Climbing Winnipeg Center
02:23AM 48.9833 -94.1667 117° Southeast 530 610 33,400 900 Climbing Winnipeg Center
02:24AM 48.9333 -93.9333 108° East 520 598 34,200 600 Climbing Winnipeg Center
02:25AM 48.8667 -93.7667 121° Southeast 530 610 34,700 420 Climbing Winnipeg Center
02:26AM 48.7833 -93.5667 122° Southeast 530 610 35,100 120 Climbing Winnipeg Center
02:27AM 48.7333 -93.3667 111° Southeast 530 610 35,000 -60 Descending Winnipeg Center
02:28AM 48.7133 -93.2406 103° East 527 606 35,000  Level Minneapolis Center
02:29AM 48.6497 -93.0453 116° Southeast 522 601 35,000  Level Minneapolis Center
02:30AM 48.5856 -92.8475 116° Southeast 522 601 35,000  Level Minneapolis Center
02:31AM 48.5219 -92.6497 116° Southeast 523 602 35,000  Level Minneapolis Center
02:32AM 48.4578 -92.4556 116° Southeast 520 598 35,000  Level Minneapolis Center
02:33AM 48.3797 -92.2214 117° Southeast 521 600 35,000  Level Minneapolis Center
02:34AM 48.3144 -92.0267 117° Southeast 522 601 35,000  Level Minneapolis Center
02:35AM 48.2494 -91.8311 116° Southeast 523 602 35,000  Level Minneapolis Center
02:36AM 48.1825 -91.6375 117° Southeast 522 601 35,000  Level Minneapolis Center
02:37AM 48.1167 -91.4447 117° Southeast 521 600 35,000  Level Minneapolis Center
02:38AM 48.0497 -91.2522 117° Southeast 521 600 35,000  Level Minneapolis Center
02:39AM 47.9825 -91.0592 117° Southeast 523 602 35,000  Level Minneapolis Center
02:40AM 47.9153 -90.8667 117° Southeast 523 602 35,000  Level Minneapolis Center
02:41AM 47.8483 -90.6744 117° Southeast 524 603 35,000  Level Minneapolis Center
02:42AM 47.7800 -90.4839 118° Southeast 523 602 35,000  Level Minneapolis Center
02:43AM 47.7194 -90.3144 118° Southeast 522 601 35,000  Level Minneapolis Center
02:44AM 47.6508 -90.1269 118° Southeast 518 596 35,000  Level Minneapolis Center
02:45AM 47.5828 -89.9397 118° Southeast 517 595 35,000  Level Minneapolis Center
02:46AM 47.5144 -89.7519 118° Southeast 517 595 35,000  Level Minneapolis Center
02:47AM 47.4442 -89.5650 119° Southeast 519 597 35,000  Level Minneapolis Center
02:48AM 47.3614 -89.3400 118° Southeast 519 597 35,000  Level Minneapolis Center
02:49AM 47.2903 -89.1542 119° Southeast 519 597 35,000  Level Minneapolis Center
02:50AM 47.2192 -88.9661 119° Southeast 522 601 35,000  Level Minneapolis Center
02:51AM 47.1492 -88.7806 119° Southeast 520 598 35,000  Level Minneapolis Center
02:52AM 47.0772 -88.5944 120° Southeast 522 601 35,000  Level Minneapolis Center
02:53AM 47.0061 -88.4092 119° Southeast 521 600 35,000  Level Minneapolis Center
02:54AM 46.9347 -88.2264 120° Southeast 517 595 35,000  Level Minneapolis Center
02:55AM 46.8642 -88.0433 119° Southeast 516 594 35,000  Level Minneapolis Center
02:56AM 46.7928 -87.8608 120° Southeast 516 594 35,000  Level Minneapolis Center
02:57AM 46.7200 -87.6778 120° Southeast 518 596 35,000  Level Minneapolis Center
02:58AM 46.6458 -87.4994 121° Southeast 517 595 35,000  Level Minneapolis Center
02:59AM 46.5750 -87.3183 120° Southeast 515 593 35,000 -60 Level Minneapolis Center
03:00AM 46.5042 -87.1425 120° Southeast 508 585 34,900  Descending Minneapolis Center
03:01AM 46.4336 -86.9703 121° Southeast 500 575 35,000  Climbing Minneapolis Center
03:02AM 46.3628 -86.7978 121° Southeast 497 572 34,900  Descending Minneapolis Center
03:03AM 46.2925 -86.6286 121° Southeast 493 567 35,000  Climbing Minneapolis Center
03:04AM 46.2231 -86.4603 121° Southeast 488 562 35,000  Level Minneapolis Center
03:05AM 46.1550 -86.2936 120° Southeast 483 556 35,000  Level Minneapolis Center
03:06AM 46.0856 -86.1303 121° Southeast 479 551 35,000  Level Minneapolis Center
03:07AM 46.0161 -85.9678 122° Southeast 477 549 35,000  Level Minneapolis Center
03:08AM 45.9492 -85.8075 121° Southeast 469 540 35,000  Level Minneapolis Center
03:11AM 45.8552 -85.5868 121° Southeast  Level FlightAware Approximate
03:11AM 45.7167 -85.3000 121° Southeast 460 529 35,000  Level Winnipeg Center
03:12AM 45.7000 -85.2500 115° Southeast 460 529 35,000  Level Toronto Center
03:13AM 45.6167 -85.0667 123° Southeast 470 541 35,000  Level Toronto Center
03:14AM 45.5500 -84.9167 122° Southeast 480 552 35,000  Level Toronto Center
03:15AM 45.4667 -84.7500 125° Southeast 480 552 35,000  Level Toronto Center
03:16AM 45.4167 -84.6000 115° Southeast 480 552 35,000  Level Toronto Center
03:17AM 45.3333 -84.4167 123° Southeast 490 564 35,000  Level Toronto Center
03:18AM 45.3203 -84.3697 112° Southeast 485 558 35,000  Level Minneapolis Center
03:19AM 45.2478 -84.2083 122° Southeast 484 557 35,000  Level Minneapolis Center
03:20AM 45.1747 -84.0464 123° Southeast 486 559 35,000  Level Minneapolis Center
03:21AM 45.1022 -83.8858 123° Southeast 484 557 35,000  Level Minneapolis Center
03:22AM 45.0286 -83.7250 123° Southeast 486 559 35,000 -60 Level Minneapolis Center
03:23AM 44.9556 -83.5647 123° Southeast 486 559 34,900  Descending Minneapolis Center
03:24AM 44.8822 -83.4056 123° Southeast 486 559 35,000  Climbing Minneapolis Center
03:25AM 44.8092 -83.2481 123° Southeast 482 555 35,000  Level Minneapolis Center
03:26AM 44.7350 -83.0897 123° Southeast 484 557 35,000  Level Minneapolis Center
03:27AM 44.6619 -82.9328 123° Southeast 482 555 35,000  Level Minneapolis Center
03:28AM 44.5886 -82.7761 123° Southeast 482 555 35,000  Level Minneapolis Center
03:29AM 44.5139 -82.6186 124° Southeast 484 557 35,000  Level Minneapolis Center
03:30AM 44.4392 -82.4622 124° Southeast 485 558 35,000  Level Minneapolis Center
03:31AM 44.3000 -82.2000 126° Southeast 480 552 35,000  Level Toronto Center
03:32AM 44.2333 -82.0500 122° Southeast 480 552 35,000 -360 Level Toronto Center
03:33AM 44.1667 -81.9167 125° Southeast 480 552 34,300 -1,800 Descending Toronto Center
03:34AM 44.0833 -81.7500 125° Southeast 460 529 31,500 -2,940 Descending Toronto Center
03:35AM 44.0167 -81.6000 122° Southeast 460 529 28,500 -2,940 Descending Toronto Center
03:36AM 43.9333 -81.4667 131° Southeast 460 529 25,700 -2,760 Descending Toronto Center
03:37AM 43.8667 -81.3167 122° Southeast 450 518 23,000 -2,700 Descending Toronto Center
03:38AM 43.7833 -81.1833 131° Southeast 440 506 20,400 -2,220 Descending Toronto Center
03:39AM 43.7167 -81.0667 128° Southeast 410 472 18,600 -1,920 Descending Toronto Center
03:40AM 43.6667 -80.9500 121° Southeast 390 449 16,600 -1,980 Descending Toronto Center
03:41AM 43.6000 -80.8333 128° Southeast 370 426 14,700 -1,800 Descending Toronto Center
03:42AM 43.5500 -80.7167 121° Southeast 350 403 13,000 -1,800 Descending Toronto Center
03:43AM 43.5000 -80.6167 125° Southeast 330 380 11,100 -1,620 Descending Toronto Center
03:44AM 43.4500 -80.5333 130° Southeast 300 345 9,800 -1,380 Descending Toronto Center
03:45AM 43.4000 -80.4333 125° Southeast 280 322 8,400 -1,440 Descending Toronto Center
03:46AM 43.3500 -80.3667 136° Southeast 270 311 7,000 -1,440 Descending Toronto Center
03:47AM 43.3000 -80.2667 124° Southeast 260 299 5,600 -1,380 Descending Toronto Center
03:48AM 43.2667 -80.2000 124° Southeast 250 288 4,300 -1,200 Descending Toronto Center
03:49AM 43.2167 -80.1333 136° Southeast 250 288 3,300 -900 Descending Toronto Center
03:50AM 43.2000 -80.0500 105° East 240 276 2,600 -900 Descending Toronto Center
03:51AM 43.1833 -79.9833 109° East 200 230 1,600 -900 Descending Toronto Center
03:52AM 43.1667 -79.9333 115° Southeast 160 184 900 -720 Descending Toronto Center
03:54AM 43.1731 -79.9350 North  Level Estimated